Time;durP1;ratioP1;P1;durP2;ratioP2;P2;SDS_P1;SDS_P2;PMS_P1;PMS_P2;Temp;Humidity;BMP_temperature;BMP_pressure;BME280_temperature;BME280_humidity;BME280_pressure;Samples;Min_cycle;Max_cycle;Signal;HPM_P1;HPM_P2
2023/10/09 00:03:08;;;;;;;3.17;1.33;;;;;;;12.61;41.58;100131.28;4444970;32;33259;-83
2023/10/09 00:05:53;;;;;;;4.35;1.62;;;;;;;12.54;41.81;100125.91;4446049;32;34652;-83
2023/10/09 00:08:22;;;;;;;3.90;1.42;;;;;;;12.66;42.23;100123.56;4444813;32;34906;-83
2023/10/09 00:10:54;;;;;;;4.65;2.00;;;;;;;12.69;42.56;100130.53;4446600;32;34585;-83
2023/10/09 00:13:32;;;;;;;5.07;1.83;;;;;;;12.69;42.59;100113.22;4436041;32;33594;-83
2023/10/09 00:16:13;;;;;;;5.82;1.95;;;;;;;12.82;42.08;100114.31;4439992;32;34594;-84
2023/10/09 00:18:46;;;;;;;5.65;1.80;;;;;;;12.90;42.43;100107.53;4428124;32;35037;-83
2023/10/09 00:21:20;;;;;;;3.83;1.42;;;;;;;12.75;43.10;100115.06;4446019;32;33519;-84
2023/10/09 00:23:59;;;;;;;6.50;2.00;;;;;;;12.70;43.52;100116.69;4436101;32;33508;-84
2023/10/09 00:26:29;;;;;;;5.25;2.03;;;;;;;12.77;42.78;100108.16;4423585;32;34662;-84
2023/10/09 00:28:56;;;;;;;4.93;1.90;;;;;;;12.87;43.28;100099.66;4437721;32;34084;-84
2023/10/09 00:31:33;;;;;;;4.37;1.77;;;;;;;12.80;43.47;100097.78;4445198;32;33116;-83
2023/10/09 00:34:03;;;;;;;5.93;2.25;;;;;;;13.01;43.15;100106.00;4436664;32;33309;-84
2023/10/09 00:36:32;;;;;;;5.00;1.83;;;;;;;12.94;42.79;100103.25;4440482;32;34070;-84
2023/10/09 00:39:11;;;;;;;4.93;2.08;;;;;;;12.79;43.61;100093.44;4438910;32;34218;-83
2023/10/09 00:41:41;;;;;;;4.35;1.92;;;;;;;12.86;42.75;100097.91;4450807;32;33817;-83
2023/10/09 00:44:10;;;;;;;4.53;1.67;;;;;;;12.85;43.92;100098.78;4447542;32;33212;-87
2023/10/09 00:46:42;;;;;;;4.40;1.73;;;;;;;12.69;43.95;100104.50;4445641;32;33565;-84
2023/10/09 00:49:10;;;;;;;3.75;1.30;;;;;;;12.64;44.01;100094.91;4437990;32;35118;-83
2023/10/09 00:51:42;;;;;;;5.10;2.00;;;;;;;12.70;43.51;100090.69;4427742;32;33339;-83
2023/10/09 00:54:15;;;;;;;5.82;1.60;;;;;;;12.75;43.41;100086.44;4445162;32;32676;-83
2023/10/09 00:56:44;;;;;;;5.93;1.90;;;;;;;12.78;43.20;100087.38;4441601;32;33106;-82
2023/10/09 00:59:16;;;;;;;4.35;1.45;;;;;;;12.83;43.45;100095.25;4445316;32;35065;-83
2023/10/09 01:01:56;;;;;;;4.62;1.90;;;;;;;12.92;43.62;100098.03;4446141;32;34826;-83
2023/10/09 01:04:28;;;;;;;5.18;1.80;;;;;;;12.95;43.67;100102.41;4440663;32;33371;-83
2023/10/09 01:07:15;;;;;;;9.65;1.85;;;;;;;12.89;43.84;100111.00;4433077;32;33829;-83
2023/10/09 01:09:44;;;;;;;4.75;1.83;;;;;;;12.95;43.67;100105.88;4437027;32;35034;-83
2023/10/09 01:12:18;;;;;;;4.35;1.85;;;;;;;13.04;43.40;100103.47;4448305;32;34229;-83
2023/10/09 01:14:52;;;;;;;3.97;1.40;;;;;;;12.98;43.29;100085.13;4428567;32;33680;-83
2023/10/09 01:17:35;;;;;;;5.70;1.73;;;;;;;12.87;43.25;100087.53;4446458;32;34779;-83
2023/10/09 01:20:05;;;;;;;5.35;1.95;;;;;;;12.95;43.83;100089.38;4448925;32;33999;-84
2023/10/09 01:22:34;;;;;;;5.22;1.70;;;;;;;12.99;43.41;100084.25;4447986;32;34060;-82
2023/10/09 01:25:06;;;;;;;5.72;1.67;;;;;;;12.94;43.72;100101.53;4437016;32;33892;-83
2023/10/09 01:27:34;;;;;;;4.70;1.90;;;;;;;12.95;43.05;100092.88;4449102;32;33754;-82
2023/10/09 01:30:02;;;;;;;5.15;2.10;;;;;;;13.11;43.15;100091.44;4442426;32;33869;-83
2023/10/09 01:32:30;;;;;;;6.32;2.53;;;;;;;13.05;43.28;100092.19;4440673;32;33351;-83
2023/10/09 01:34:59;;;;;;;4.90;1.95;;;;;;;13.11;43.01;100101.84;4434871;32;33493;-83
2023/10/09 01:37:28;;;;;;;5.87;1.60;;;;;;;13.13;42.98;100101.00;4436061;32;34765;-83
2023/10/09 01:40:25;;;;;;;7.62;2.22;;;;;;;13.26;42.74;100098.63;4439514;32;34181;-83
2023/10/09 01:42:49;;;;;;;5.10;1.85;;;;;;;13.17;42.84;100098.47;4426007;32;34652;-83
2023/10/09 01:47:51;;;;;;;3.55;1.40;;;;;;;13.10;42.66;100092.25;4444106;32;33727;-83
2023/10/09 01:50:22;;;;;;;4.18;1.52;;;;;;;13.09;42.76;100094.00;4450564;32;34901;-82
2023/10/09 01:52:51;;;;;;;4.03;1.50;;;;;;;13.32;42.48;100099.62;4437074;32;33579;-82
2023/10/09 01:55:34;;;;;;;5.45;1.83;;;;;;;13.07;43.08;100110.47;4436353;32;33877;-85
2023/10/09 01:58:38;;;;;;;5.55;1.70;;;;;;;12.99;43.84;100107.69;4439684;32;34339;-83
2023/10/09 02:01:01;;;;;;;4.72;1.92;;;;;;;13.11;43.23;100114.87;4432431;32;33761;-84
2023/10/09 02:03:30;;;;;;;4.12;1.73;;;;;;;13.27;43.11;100111.69;4435527;32;34138;-85
2023/10/09 02:06:03;;;;;;;3.92;1.90;;;;;;;13.14;43.12;100128.81;4447675;32;33432;-85
2023/10/09 02:08:35;;;;;;;4.87;1.40;;;;;;;13.10;43.23;100116.56;4445917;32;33915;-84
2023/10/09 02:11:02;;;;;;;4.43;1.80;;;;;;;13.11;43.23;100123.56;4449445;32;34032;-85
2023/10/09 02:13:34;;;;;;;5.90;1.95;;;;;;;13.09;42.74;100101.81;4448798;32;34606;-88
2023/10/09 02:18:55;;;;;;;4.05;1.70;;;;;;;12.96;43.10;100094.66;4452074;32;34645;-85
2023/10/09 02:21:33;;;;;;;4.12;1.75;;;;;;;13.14;43.91;100087.16;4427040;32;33834;-85
2023/10/09 02:24:09;;;;;;;5.28;1.62;;;;;;;12.99;42.50;100091.19;4452571;32;33164;-85
2023/10/09 02:29:18;;;;;;;5.15;1.80;;;;;;;13.58;43.14;100099.16;4437562;32;34282;-85
2023/10/09 02:31:51;;;;;;;4.60;1.67;;;;;;;12.97;43.94;100083.38;4437173;32;33864;-86
2023/10/09 02:34:23;;;;;;;5.40;1.85;;;;;;;13.14;43.77;100091.47;4436915;32;34192;-85
2023/10/09 02:36:57;;;;;;;5.12;2.17;;;;;;;13.12;43.72;100086.25;4444656;32;33433;-85
2023/10/09 02:39:26;;;;;;;4.12;1.90;;;;;;;12.99;44.17;100086.84;4439219;32;33951;-86
2023/10/09 02:42:01;;;;;;;5.12;1.83;;;;;;;13.10;45.96;100079.25;4452809;32;33394;-85
2023/10/09 02:44:34;;;;;;;6.22;1.77;;;;;;;13.07;47.18;100082.69;4427646;32;34652;-89
2023/10/09 02:47:17;;;;;;;5.43;2.10;;;;;;;13.20;47.09;100090.72;4436538;32;33571;-85
2023/10/09 02:49:48;;;;;;;5.00;1.90;;;;;;;13.03;47.76;100077.37;4436527;32;34725;-86
2023/10/09 02:52:24;;;;;;;5.47;1.52;;;;;;;12.90;48.59;100064.16;4435504;32;34132;-84
2023/10/09 02:54:59;;;;;;;6.18;2.30;;;;;;;12.95;49.18;100052.94;4428579;32;34161;-85
2023/10/09 02:57:36;;;;;;;4.82;2.00;;;;;;;12.75;49.96;100060.41;4436130;32;33816;-85
2023/10/09 03:00:09;;;;;;;4.60;1.90;;;;;;;12.73;49.09;100056.88;4450511;32;34917;-85
2023/10/09 03:02:39;;;;;;;5.68;2.10;;;;;;;12.86;49.12;100064.09;4437436;32;34106;-86
2023/10/09 03:05:12;;;;;;;4.32;1.95;;;;;;;12.56;46.26;100069.59;4450082;32;34694;-86
2023/10/09 03:07:40;;;;;;;4.20;1.85;;;;;;;12.77;47.87;100066.53;4436886;32;34165;-85
2023/10/09 03:10:12;;;;;;;4.43;1.87;;;;;;;12.93;48.37;100065.94;4442051;32;33974;-84
2023/10/09 03:12:43;;;;;;;5.53;1.65;;;;;;;12.83;47.87;100080.50;4427067;32;34929;-84
2023/10/09 03:15:11;;;;;;;4.97;1.70;;;;;;;12.77;48.04;100075.22;4436188;32;34609;-84
2023/10/09 03:17:39;;;;;;;5.25;2.10;;;;;;;12.91;45.91;100041.59;4449173;32;34449;-84
2023/10/09 03:20:17;;;;;;;6.72;1.92;;;;;;;12.57;46.54;100046.19;4444333;32;33749;-84
2023/10/09 03:22:47;;;;;;;4.65;1.98;;;;;;;12.76;45.36;100034.41;4437289;32;33850;-84
2023/10/09 03:25:16;;;;;;;5.62;1.87;;;;;;;12.34;45.26;100045.75;4443146;32;34660;-83
2023/10/09 03:27:45;;;;;;;4.32;2.00;;;;;;;12.30;45.65;100037.88;4437183;32;33567;-84
2023/10/09 03:30:22;;;;;;;5.20;2.30;;;;;;;12.59;45.43;100038.44;4436125;32;32378;-85
2023/10/09 03:32:54;;;;;;;5.85;2.30;;;;;;;12.28;46.34;100044.78;4451877;32;33917;-85
2023/10/09 03:35:27;;;;;;;5.15;1.92;;;;;;;12.24;46.47;100030.84;4435853;32;33727;-85
2023/10/09 03:38:00;;;;;;;6.22;2.25;;;;;;;12.18;47.47;100036.78;4436006;32;34171;-85
2023/10/09 03:40:28;;;;;;;5.78;2.37;;;;;;;12.12;47.81;100044.47;4436615;32;34056;-84
2023/10/09 03:42:56;;;;;;;5.40;1.98;;;;;;;12.20;47.44;100041.13;4435967;32;33397;-85
2023/10/09 03:45:25;;;;;;;7.68;2.40;;;;;;;12.42;47.40;100051.13;4421892;32;34238;-85
2023/10/09 03:48:11;;;;;;;8.55;2.05;;;;;;;12.37;48.52;100052.75;4435407;32;33740;-83
2023/10/09 03:50:43;;;;;;;6.15;2.42;;;;;;;12.40;48.30;100047.63;4435340;32;33102;-84
2023/10/09 03:53:12;;;;;;;6.95;2.47;;;;;;;12.62;47.87;100044.59;4444460;32;34174;-83
2023/10/09 03:55:41;;;;;;;5.40;2.28;;;;;;;12.66;46.58;100051.59;4436140;32;34783;-83
2023/10/09 03:58:12;;;;;;;4.65;1.92;;;;;;;12.69;45.98;100044.69;4444491;32;33703;-87
2023/10/09 04:00:46;;;;;;;4.97;1.90;;;;;;;12.64;45.32;100040.28;4425833;32;34459;-83
2023/10/09 04:03:15;;;;;;;5.28;2.30;;;;;;;12.48;45.63;100035.62;4443937;32;34101;-85
2023/10/09 04:05:43;;;;;;;5.30;2.08;;;;;;;12.54;44.97;100034.88;4431695;32;33558;-85
2023/10/09 04:08:21;;;;;;;5.22;2.28;;;;;;;12.36;45.43;100030.22;4428550;32;33344;-85
2023/10/09 04:10:52;;;;;;;5.10;2.50;;;;;;;12.37;45.58;100037.16;4441308;32;34761;-85
2023/10/09 04:13:32;;;;;;;7.03;2.85;;;;;;;12.23;44.91;100039.47;4444868;32;34152;-84
2023/10/09 04:16:33;;;;;;;7.47;2.30;;;;;;;12.63;43.34;100040.25;4435272;32;33590;-85
2023/10/09 04:18:59;;;;;;;7.82;2.80;;;;;;;12.40;43.90;100042.41;4439466;32;33054;-85
2023/10/09 04:21:37;;;;;;;8.13;2.97;;;;;;;12.24;44.62;100030.84;4424179;32;32905;-86
2023/10/09 04:26:55;;;;;;;;;;;;;;;12.37;44.44;100040.63;4433630;32;33632;-85
2023/10/09 04:29:26;;;;;;;6.75;2.97;;;;;;;12.50;43.62;100026.16;4435243;32;33393;-85
2023/10/09 04:31:56;;;;;;;6.85;2.87;;;;;;;12.31;44.30;100018.81;4433062;32;34063;-81
2023/10/09 04:34:34;;;;;;;6.90;3.17;;;;;;;12.72;43.13;100017.00;4435779;32;32735;-83
2023/10/09 04:39:47;;;;;;;8.57;3.00;;;;;;;12.54;43.65;100014.06;4436500;32;34376;-82
2023/10/09 04:47:38;;;;;;;7.30;3.30;;;;;;;12.29;44.19;100011.00;4424881;32;34714;-81
2023/10/09 04:50:11;;;;;;;5.68;2.50;;;;;;;12.36;44.47;100004.22;4441820;32;33351;-82
2023/10/09 05:05:59;;;;;;;5.75;1.70;;;;;;;12.38;43.93;99984.28;4411339;32;34278;-84
2023/10/09 05:16:18;;;;;;;7.03;2.03;;;;;;;12.40;43.87;99959.22;4436159;32;34033;-84
2023/10/09 05:18:55;;;;;;;;;;;;;;;12.35;44.88;99971.22;4450559;32;33700;-82
2023/10/09 05:26:51;;;;;;;5.85;2.15;;;;;;;12.35;43.41;99960.81;4423099;32;34049;-85
2023/10/09 05:34:36;;;;;;;7.60;2.20;;;;;;;12.46;43.27;99972.31;4430782;32;33358;-85
2023/10/09 05:37:24;;;;;;;9.35;2.37;;;;;;;12.83;42.62;99949.53;4451170;32;34173;-91
2023/10/09 05:42:42;;;;;;;4.93;1.95;;;;;;;12.63;42.87;99975.22;4438963;32;32787;-86
2023/10/09 05:48:48;;;;;;;7.95;2.40;;;;;;;12.58;43.52;99987.28;4445436;32;33618;-85
2023/10/09 06:05:40;;;;;;;10.10;2.78;;;;;;;12.99;41.30;99971.47;4438229;32;33592;-88
2023/10/09 06:07:24;;;;;;;7.10;2.50;;;;;;;12.53;42.44;99981.09;4433750;32;33657;-86
2023/10/09 06:09:56;;;;;;;6.32;2.50;;;;;;;12.65;42.31;99970.91;4437457;32;33941;-93
2023/10/09 06:12:49;;;;;;;6.80;2.87;;;;;;;12.47;42.37;99955.87;4424405;32;33597;-85
2023/10/09 06:15:51;;;;;;;7.10;2.60;;;;;;;12.43;42.59;99954.06;4438155;32;33315;-87
2023/10/09 06:18:34;;;;;;;6.80;2.50;;;;;;;12.70;42.18;99958.00;4438010;32;34717;-84
2023/10/09 06:29:37;;;;;;;7.97;2.45;;;;;;;12.90;41.68;99936.62;4453908;32;33918;-91
2023/10/09 06:35:14;;;;;;;8.20;3.05;;;;;;;12.82;41.96;99925.22;4437268;32;33948;-84
2023/10/09 06:51:34;;;;;;;10.82;2.35;;;;;;;12.59;40.84;99940.47;4452327;32;33717;-86
2023/10/09 06:54:09;;;;;;;6.30;2.47;;;;;;;12.68;40.56;99944.06;4441244;32;33531;-85
2023/10/09 06:59:24;;;;;;;6.62;2.05;;;;;;;13.00;38.99;99935.06;4452363;32;32582;-86
2023/10/09 07:07:20;;;;;;;7.62;2.20;;;;;;;12.93;38.18;99922.81;4452472;32;33885;-86
2023/10/09 07:12:42;;;;;;;9.10;2.50;;;;;;;12.75;38.17;99904.28;4452591;32;34008;-88
2023/10/09 07:18:18;;;;;;;7.65;2.47;;;;;;;12.43;38.85;99911.59;4452289;32;33707;-85
2023/10/09 07:20:58;;;;;;;6.45;2.20;;;;;;;12.50;38.74;99914.31;4452339;32;32562;-85
2023/10/09 07:23:32;;;;;;;5.85;2.33;;;;;;;12.76;37.88;99906.03;4438224;32;33862;-85
2023/10/09 07:26:17;;;;;;;5.70;1.90;;;;;;;12.89;37.70;99897.59;4428509;32;34515;-84
2023/10/09 07:28:48;;;;;;;10.27;2.33;;;;;;;12.60;37.79;99892.78;4438645;32;33953;-83
2023/10/09 07:31:27;;;;;;;6.70;1.95;;;;;;;12.64;37.55;99896.31;4438207;32;33500;-85
2023/10/09 07:33:57;;;;;;;8.18;2.60;;;;;;;12.65;37.82;99887.66;4438912;32;34619;-86
2023/10/09 07:36:34;;;;;;;6.68;2.45;;;;;;;12.93;38.18;99886.37;4452134;32;34108;-85
2023/10/09 07:39:13;;;;;;;8.35;2.47;;;;;;;12.89;37.95;99858.56;4452237;32;33872;-85
2023/10/09 07:41:55;;;;;;;6.47;2.95;;;;;;;12.97;37.60;99850.84;4439198;32;33513;-85
2023/10/09 07:44:38;;;;;;;8.30;2.25;;;;;;;12.93;37.89;99834.31;4452345;32;33526;-86
2023/10/09 07:47:22;;;;;;;7.85;2.75;;;;;;;12.74;37.25;99827.09;4451704;32;35046;-90
2023/10/09 07:49:53;;;;;;;8.63;2.72;;;;;;;12.69;37.72;99815.75;4451636;32;34145;-85
2023/10/09 07:52:22;;;;;;;7.60;2.20;;;;;;;12.80;37.24;99811.56;4451937;32;33579;-83
2023/10/09 07:54:49;;;;;;;5.85;2.17;;;;;;;13.01;37.41;99803.19;4452383;32;33806;-84
2023/10/09 07:57:17;;;;;;;5.32;1.70;;;;;;;12.98;37.56;99790.13;4437845;32;33713;-86
2023/10/09 07:59:54;;;;;;;7.68;2.00;;;;;;;12.84;37.27;99795.13;4452176;32;33493;-85
2023/10/09 08:02:31;;;;;;;7.07;1.40;;;;;;;13.00;36.76;99791.03;4451821;32;34221;-84
2023/10/09 08:08:18;;;;;;;4.32;1.30;;;;;;;12.98;36.16;99791.00;4439559;32;34931;-84
2023/10/09 08:14:00;;;;;;;5.62;1.62;;;;;;;13.09;36.17;99801.56;4451958;32;33873;-82
2023/10/09 08:16:37;;;;;;;3.97;1.55;;;;;;;13.10;36.01;99804.16;4451934;32;33790;-84
2023/10/09 08:19:32;;;;;;;5.05;1.30;;;;;;;12.83;35.50;99789.06;4451838;32;33978;-86
2023/10/09 08:24:58;;;;;;;5.12;1.50;;;;;;;13.10;34.93;99777.25;4431988;32;33274;-84
2023/10/09 08:33:01;;;;;;;5.35;1.50;;;;;;;13.11;35.64;99756.47;4436473;32;34188;-84
2023/10/09 08:35:33;;;;;;;6.53;1.55;;;;;;;13.38;35.16;99765.50;4436367;32;33354;-86
2023/10/09 08:38:10;;;;;;;3.87;1.10;;;;;;;13.36;34.87;99757.63;4422512;32;34543;-85
2023/10/09 08:40:42;;;;;;;5.93;1.85;;;;;;;13.63;35.01;99759.66;4423500;32;33720;-92
2023/10/09 08:43:16;;;;;;;4.75;1.52;;;;;;;13.46;34.60;99745.59;4427974;32;33550;-84
2023/10/09 08:45:53;;;;;;;5.55;1.50;;;;;;;13.60;34.24;99741.41;4437924;32;33406;-83
2023/10/09 08:48:26;;;;;;;5.50;1.83;;;;;;;13.69;34.93;99745.81;4451915;32;34079;-84
2023/10/09 08:50:55;;;;;;;5.70;1.50;;;;;;;13.86;34.51;99748.56;4451435;32;35110;-83
2023/10/09 08:53:24;;;;;;;5.10;1.30;;;;;;;14.04;34.89;99760.91;4437515;32;34029;-83
2023/10/09 08:55:51;;;;;;;4.32;1.42;;;;;;;14.07;34.21;99751.38;4438019;32;33519;-89
2023/10/09 08:58:28;;;;;;;7.20;1.60;;;;;;;14.36;33.49;99735.94;4451522;32;33840;-84
2023/10/09 09:00:58;;;;;;;7.05;1.70;;;;;;;14.29;32.96;99736.75;4451851;32;33910;-84
2023/10/09 09:03:26;;;;;;;5.25;1.35;;;;;;;14.71;32.14;99734.44;4451299;32;34954;-83
2023/10/09 09:06:00;;;;;;;3.97;1.35;;;;;;;14.59;32.94;99733.50;4451767;32;33807;-86
2023/10/09 09:08:30;;;;;;;5.55;1.20;;;;;;;14.55;33.77;99726.53;4451804;32;33635;-86
2023/10/09 09:11:05;;;;;;;4.85;1.37;;;;;;;14.51;32.48;99731.72;4451583;32;34109;-83
2023/10/09 09:13:34;;;;;;;5.85;1.67;;;;;;;14.78;32.52;99699.66;4451468;32;33636;-85
2023/10/09 09:16:02;;;;;;;6.65;1.75;;;;;;;15.01;32.32;99697.16;4450653;32;32980;-86
2023/10/09 09:18:37;;;;;;;7.87;1.60;;;;;;;14.77;32.44;99697.91;4448617;32;34708;-86
2023/10/09 09:21:22;;;;;;;7.95;1.40;;;;;;;14.96;32.79;99698.84;4451592;32;34736;-85
2023/10/09 09:23:59;;;;;;;6.20;1.30;;;;;;;15.30;32.58;99700.72;4451294;32;33507;-86
2023/10/09 09:26:37;;;;;;;5.12;1.45;;;;;;;15.05;32.82;99705.00;4451181;32;34231;-87
2023/10/09 09:29:05;;;;;;;4.05;1.62;;;;;;;15.31;33.00;99697.22;4437446;32;34532;-87
2023/10/09 09:31:37;;;;;;;5.60;1.35;;;;;;;15.41;31.59;99700.72;4437113;32;33774;-87
2023/10/09 09:34:13;;;;;;;8.68;1.62;;;;;;;15.44;31.63;99698.09;4421004;32;32451;-85
2023/10/09 09:36:56;;;;;;;8.18;2.05;;;;;;;15.36;31.45;99689.37;4423586;32;33346;-86
2023/10/09 09:39:29;;;;;;;5.82;1.58;;;;;;;15.31;31.73;99685.91;4435692;32;34668;-85
2023/10/09 09:42:13;;;;;;;6.28;1.58;;;;;;;14.95;31.70;99691.88;4438453;32;34828;-86
2023/10/09 09:44:45;;;;;;;5.80;1.30;;;;;;;15.39;31.61;99691.16;4440681;32;33498;-85
2023/10/09 09:47:23;;;;;;;9.10;1.80;;;;;;;15.26;31.65;99698.94;4440765;32;33196;-85
2023/10/09 09:50:01;;;;;;;8.68;1.48;;;;;;;15.05;32.29;99699.75;4436510;32;34589;-85
2023/10/09 09:52:38;;;;;;;4.55;1.45;;;;;;;14.71;33.17;99690.06;4435785;32;34053;-84
2023/10/09 09:55:22;;;;;;;6.75;1.50;;;;;;;14.54;33.60;99675.19;4449113;32;34798;-85
2023/10/09 09:57:51;;;;;;;5.70;1.62;;;;;;;14.56;33.24;99683.03;4436823;32;34160;-85
2023/10/09 10:03:20;;;;;;;4.90;1.65;;;;;;;15.00;32.75;99680.63;4450669;32;34608;-86
2023/10/09 10:05:50;;;;;;;6.57;1.70;;;;;;;15.18;32.83;99669.31;4430086;32;34756;-86
2023/10/09 10:08:20;;;;;;;8.35;1.50;;;;;;;15.26;32.68;99671.94;4437991;32;33430;-88
2023/10/09 10:10:58;;;;;;;5.12;1.45;;;;;;;15.59;31.76;99660.66;4423303;32;34619;-83
2023/10/09 10:13:41;;;;;;;4.25;1.40;;;;;;;15.62;31.55;99649.34;4422145;32;34838;-84
2023/10/09 10:16:20;;;;;;;7.25;1.77;;;;;;;15.41;31.21;99644.97;4443321;32;33819;-84
2023/10/09 10:19:06;;;;;;;5.00;1.80;;;;;;;15.25;32.44;99633.66;4437031;32;34100;-85
2023/10/09 10:24:30;;;;;;;5.97;1.60;;;;;;;15.39;32.07;99578.81;4450542;32;34991;-84
2023/10/09 10:27:18;;;;;;;5.95;2.30;;;;;;;15.57;32.55;99605.81;4434894;32;33920;-84
2023/10/09 10:29:46;;;;;;;5.05;1.40;;;;;;;15.02;32.35;99597.91;4436815;32;33134;-86
2023/10/09 10:32:18;;;;;;;9.55;1.85;;;;;;;15.05;32.57;99579.66;4423502;32;33326;-84
2023/10/09 10:34:58;;;;;;;5.60;1.65;;;;;;;15.30;31.97;99572.72;4423960;32;33764;-83
2023/10/09 10:37:50;;;;;;;5.05;1.60;;;;;;;15.29;32.49;99567.47;4437170;32;33222;-84
2023/10/09 10:43:47;;;;;;;9.48;2.25;;;;;;;15.41;32.36;99571.81;4425687;32;33655;-86
2023/10/09 10:46:15;;;;;;;6.20;1.80;;;;;;;15.52;31.62;99559.63;4436406;32;34799;-82
2023/10/09 10:48:46;;;;;;;6.53;1.50;;;;;;;15.70;31.91;99548.31;4437595;32;34186;-84
2023/10/09 10:51:15;;;;;;;7.70;1.65;;;;;;;15.62;31.74;99526.53;4437315;32;34581;-86
2023/10/09 10:53:54;;;;;;;9.25;2.00;;;;;;;15.81;32.01;99536.09;4437023;32;34736;-84
2023/10/09 10:56:34;;;;;;;4.55;1.60;;;;;;;15.96;33.16;99536.03;4437329;32;33960;-85
2023/10/09 11:07:24;;;;;;;5.15;1.70;;;;;;;16.79;30.15;99512.13;4439023;32;34016;-86
2023/10/09 11:13:30;;;;;;;7.60;1.98;;;;;;;16.88;30.36;99485.84;4430482;32;33172;-84
2023/10/09 11:16:05;;;;;;;4.28;1.42;;;;;;;16.70;30.57;99472.84;4439749;32;33836;-83
2023/10/09 11:18:42;;;;;;;8.90;1.70;;;;;;;16.54;30.76;99499.13;4440908;32;34098;-84
2023/10/09 11:23:47;;;;;;;4.25;1.50;;;;;;;15.94;31.14;99505.53;4422459;32;34419;-84
2023/10/09 11:26:25;;;;;;;6.40;1.58;;;;;;;16.32;31.14;99510.59;4428657;32;34204;-86
2023/10/09 11:32:00;;;;;;;5.85;1.48;;;;;;;16.65;31.02;99485.13;4448799;32;34061;-85
2023/10/09 11:34:31;;;;;;;4.62;1.65;;;;;;;17.14;31.87;99482.16;4412979;32;32387;-85
2023/10/09 11:37:01;;;;;;;5.47;1.75;;;;;;;16.74;33.12;99498.16;4451794;32;33484;-90
2023/10/09 11:39:32;;;;;;;6.57;1.83;;;;;;;16.99;31.90;99504.97;4437785;32;34146;-88
2023/10/09 11:42:04;;;;;;;4.78;1.30;;;;;;;17.18;31.83;99512.69;4451790;32;34439;-84
2023/10/09 11:44:39;;;;;;;4.80;1.42;;;;;;;17.30;31.89;99524.81;4451745;32;33685;-94
2023/10/09 11:52:36;;;;;;;6.32;1.20;;;;;;;17.43;31.78;99543.03;4452552;32;33799;-94
2023/10/09 11:55:08;;;;;;;5.95;1.55;;;;;;;17.43;32.04;99529.94;4438681;32;32914;-88
2023/10/09 11:57:38;;;;;;;3.47;1.30;;;;;;;17.55;32.08;99530.72;4451532;32;34936;-83
2023/10/09 12:02:52;;;;;;;4.72;1.80;;;;;;;17.68;31.26;99492.97;4452490;32;33958;-93
2023/10/09 12:05:20;;;;;;;6.47;1.77;;;;;;;17.56;32.09;99499.22;4453596;32;33828;-94
2023/10/09 12:07:54;;;;;;;4.82;1.70;;;;;;;17.62;32.42;99490.44;4451848;32;34615;-90
2023/10/09 12:10:25;;;;;;;5.18;1.52;;;;;;;17.65;32.50;99483.41;4439049;32;33837;-92
2023/10/09 12:12:57;;;;;;;8.77;2.03;;;;;;;17.33;32.41;99494.19;4452412;32;33744;-93
2023/10/09 12:15:36;;;;;;;6.68;1.77;;;;;;;17.76;32.63;99478.06;4425672;32;33533;-92
2023/10/09 12:18:06;;;;;;;7.07;1.67;;;;;;;17.66;34.08;99463.31;4452016;32;33987;-85
2023/10/09 12:20:37;;;;;;;6.65;2.17;;;;;;;17.38;34.46;99452.22;4451992;32;33825;-91
2023/10/09 12:23:05;;;;;;;8.45;2.08;;;;;;;17.55;34.80;99454.69;4451607;32;34569;-84
2023/10/09 12:25:35;;;;;;;5.40;2.25;;;;;;;17.69;34.69;99443.16;4437730;32;33133;-83
2023/10/09 12:28:03;;;;;;;5.03;1.65;;;;;;;17.27;35.47;99429.63;4451432;32;33745;-84
2023/10/09 12:30:37;;;;;;;5.55;1.60;;;;;;;17.65;34.24;99437.94;4451732;32;33730;-89
2023/10/09 12:33:07;;;;;;;7.43;2.10;;;;;;;17.56;35.53;99453.78;4451880;32;34934;-84
2023/10/09 12:35:38;;;;;;;6.40;2.00;;;;;;;17.66;34.62;99439.69;4451735;32;33393;-87
2023/10/09 12:38:10;;;;;;;6.55;1.90;;;;;;;17.66;37.08;99434.47;4451793;32;33847;-94
2023/10/09 12:40:50;;;;;;;5.72;1.92;;;;;;;17.73;35.53;99426.50;4438327;32;34161;-94
2023/10/09 12:43:19;;;;;;;6.37;2.00;;;;;;;17.74;35.34;99409.00;4451684;32;34660;-83
2023/10/09 12:45:47;;;;;;;4.75;1.65;;;;;;;17.84;35.29;99426.41;4451584;32;34162;-93
2023/10/09 12:48:14;;;;;;;6.28;1.87;;;;;;;17.83;36.34;99432.50;4451585;32;34643;-92
2023/10/09 12:50:44;;;;;;;4.93;1.90;;;;;;;17.59;36.23;99440.66;4451846;32;34008;-94
2023/10/09 12:53:17;;;;;;;5.75;1.45;;;;;;;17.85;36.49;99437.75;4434205;32;33832;-92
2023/10/09 12:55:47;;;;;;;7.07;1.80;;;;;;;17.80;36.40;99439.56;4436037;32;34276;-83
2023/10/09 12:58:15;;;;;;;5.60;1.67;;;;;;;18.09;37.04;99426.94;4436052;32;34206;-95
2023/10/09 13:00:44;;;;;;;5.85;1.90;;;;;;;18.23;36.88;99419.75;4436246;32;35174;-83
2023/10/09 13:03:16;;;;;;;7.97;2.12;;;;;;;18.25;37.04;99414.47;4439497;32;34835;-94
2023/10/09 13:05:58;;;;;;;6.80;1.98;;;;;;;17.95;38.94;99402.62;4452051;32;33316;-92
2023/10/09 13:08:36;;;;;;;9.30;2.60;;;;;;;18.09;41.33;99415.56;4437897;32;34004;-86
2023/10/09 13:11:10;;;;;;;9.43;2.30;;;;;;;18.36;40.42;99412.53;4448111;32;35025;-83
2023/10/09 13:13:40;;;;;;;6.20;2.28;;;;;;;17.91;42.59;99414.91;4442450;32;33760;-84
2023/10/09 13:16:14;;;;;;;6.40;1.98;;;;;;;18.10;44.16;99431.28;4437079;32;34044;-83
2023/10/09 13:18:49;;;;;;;5.65;2.10;;;;;;;18.25;41.82;99417.09;4424591;32;33959;-83
2023/10/09 13:21:19;;;;;;;6.50;2.15;;;;;;;17.42;44.53;99414.63;4435735;32;33623;-90
2023/10/09 13:23:47;;;;;;;5.68;1.90;;;;;;;17.60;43.89;99405.69;4425792;32;34124;-86
2023/10/09 13:26:19;;;;;;;7.50;1.77;;;;;;;17.63;43.70;99417.00;4444977;32;34423;-87
2023/10/09 13:29:03;;;;;;;6.95;1.85;;;;;;;17.84;43.58;99408.06;4449848;32;33833;-85
2023/10/09 13:31:34;;;;;;;7.30;2.25;;;;;;;17.36;45.12;99405.06;4437403;32;33753;-85
2023/10/09 13:34:06;;;;;;;8.30;2.22;;;;;;;17.59;45.42;99401.31;4451026;32;34616;-84
2023/10/09 13:36:34;;;;;;;6.53;2.00;;;;;;;17.61;45.55;99405.66;4437330;32;33226;-85
2023/10/09 13:39:23;;;;;;;9.63;2.50;;;;;;;17.74;47.46;99409.00;4450275;32;33807;-85
2023/10/09 13:41:59;;;;;;;5.95;2.20;;;;;;;17.70;47.67;99423.91;4430847;32;34363;-84
2023/10/09 13:44:28;;;;;;;8.00;2.80;;;;;;;17.31;49.60;99419.97;4437948;32;33841;-86
2023/10/09 13:46:57;;;;;;;7.25;2.10;;;;;;;17.31;49.06;99422.59;4450524;32;33448;-85
2023/10/09 13:49:31;;;;;;;7.53;3.10;;;;;;;17.21;50.89;99428.81;4436387;32;34688;-85
2023/10/09 13:52:01;;;;;;;10.18;3.05;;;;;;;17.26;50.17;99413.91;4436773;32;34119;-84
2023/10/09 13:57:06;;;;;;;5.55;2.95;;;;;;;17.64;53.28;99410.00;4450413;32;33670;-85
2023/10/09 13:59:43;;;;;;;8.02;2.95;;;;;;;17.35;55.99;99410.31;4450415;32;34197;-84
2023/10/09 14:02:16;;;;;;;8.68;3.12;;;;;;;17.42;56.27;99405.00;4437518;32;34925;-85
2023/10/09 14:04:50;;;;;;;11.12;3.08;;;;;;;17.46;55.05;99403.19;4443419;32;35468;-83
2023/10/09 14:07:17;;;;;;;9.88;3.35;;;;;;;17.32;55.51;99394.66;4442100;32;34456;-87
2023/10/09 14:09:55;;;;;;;8.05;3.58;;;;;;;17.46;55.58;99398.84;4438508;32;34749;-85
2023/10/09 14:12:24;;;;;;;10.55;4.00;;;;;;;17.24;57.82;99394.75;4447627;32;34651;-89
2023/10/09 14:14:53;;;;;;;9.30;3.87;;;;;;;17.32;57.76;99390.28;4448483;32;33613;-86
2023/10/09 14:17:27;;;;;;;9.82;3.50;;;;;;;17.14;58.01;99390.47;4453140;32;34505;-86
2023/10/09 14:22:52;;;;;;;9.57;3.90;;;;;;;16.89;59.11;99393.31;4437811;32;34096;-85
2023/10/09 14:25:23;;;;;;;8.23;3.97;;;;;;;16.85;59.97;99394.22;4443594;32;34489;-86
2023/10/09 14:27:53;;;;;;;10.80;4.30;;;;;;;16.74;60.42;99390.81;4443672;32;33008;-91
2023/10/09 14:30:30;;;;;;;13.05;5.18;;;;;;;16.52;60.72;99385.75;4451334;32;34255;-86
2023/10/09 14:33:01;;;;;;;10.73;4.80;;;;;;;16.32;62.06;99390.25;4452405;32;34255;-85
2023/10/09 14:35:32;;;;;;;9.93;5.00;;;;;;;16.60;61.76;99395.31;4450007;32;33531;-85
2023/10/09 14:38:04;;;;;;;11.07;5.60;;;;;;;16.38;63.46;99402.44;4423852;32;33421;-90
2023/10/09 14:40:32;;;;;;;11.93;6.00;;;;;;;16.35;63.30;99403.31;4441457;32;34702;-86
2023/10/09 14:43:00;;;;;;;15.90;5.82;;;;;;;16.32;63.19;99397.22;4441550;32;34607;-83
2023/10/09 14:45:27;;;;;;;12.60;6.20;;;;;;;16.01;64.81;99395.66;4456877;32;33989;-83